Terminal Aerodrome Forecast
Issued by NWS Cleveland, OH

Home | Current Version | Previous Version | Graphics & Text | Print | Product List | Glossary On
Versions: 1 2 3 4 5 6 7 8 9 10 11 12 13 14
000
FTUS41 KCLE 151120
TAFCAK
TAF
KCAK 151120Z 1512/1612 14005KT P6SM FEW250
     FM151400 16008KT P6SM OVC200
     FM152100 20010KT P6SM -SHRA OVC080
     FM160000 20010G20KT 3SM -SHRA BR OVC010
     FM160100 20010G20KT P6SM -SHRA OVC007
     FM160400 23010G20KT P6SM OVC007
     FM160900 26012KT P6SM OVC025=

USA.gov is the U.S. government's official web portal to all federal, state and local government web resources and services.